createdAt,value
2018-11-22T00:00:27.954Z,16.42
2018-11-22T00:01:02.899Z,16.67
2018-11-22T00:01:38.519Z,17.30
2018-11-22T00:02:13.714Z,15.70
2018-11-22T00:02:50.232Z,15.85
2018-11-22T00:03:24.801Z,15.80
2018-11-22T00:03:59.833Z,16.37
2018-11-22T00:04:35.278Z,17.17
2018-11-22T00:05:10.204Z,16.65
2018-11-22T00:05:45.757Z,15.85
2018-11-22T00:06:20.631Z,16.02
2018-11-22T00:06:56.107Z,15.90
2018-11-22T00:07:31.226Z,15.80
2018-11-22T00:08:06.355Z,17.50
2018-11-22T00:08:41.562Z,16.40
2018-11-22T00:09:16.761Z,16.60
2018-11-22T00:09:55.718Z,16.70
2018-11-22T00:10:31.917Z,16.73
2018-11-22T00:11:07.395Z,15.98
2018-11-22T00:11:42.521Z,16.07
2018-11-22T00:12:17.997Z,16.95
2018-11-22T00:12:52.543Z,16.97
2018-11-22T00:13:27.998Z,14.65
2018-11-22T00:14:03.387Z,17.07
2018-11-22T00:14:38.851Z,16.25
2018-11-22T00:15:14.694Z,15.70
2018-11-22T00:15:50.148Z,17.10
2018-11-22T00:16:25.229Z,16.37
2018-11-22T00:17:00.468Z,16.35
2018-11-22T00:17:35.631Z,16.62
2018-11-22T00:18:10.915Z,16.52
2018-11-22T00:18:45.763Z,15.68
2018-11-22T00:19:20.698Z,16.32
2018-11-22T00:19:55.491Z,16.67
2018-11-22T00:20:30.905Z,17.40
2018-11-22T00:21:05.541Z,17.42
2018-11-22T00:21:40.953Z,16.82
2018-11-22T00:22:16.154Z,17.27
2018-11-22T00:22:51.627Z,17.37
2018-11-22T00:23:27.041Z,16.25
2018-11-22T00:24:01.850Z,16.00
2018-11-22T00:24:37.479Z,17.50
2018-11-22T00:25:13.669Z,16.48
2018-11-22T00:25:48.783Z,16.07
2018-11-22T00:26:23.236Z,16.70
2018-11-22T00:26:58.438Z,16.82
2018-11-22T00:27:33.539Z,17.62
2018-11-22T00:28:09.045Z,16.20
2018-11-22T00:28:44.255Z,16.70
2018-11-22T00:29:19.486Z,16.93
2018-11-22T00:29:54.625Z,16.40
2018-11-22T00:30:29.119Z,18.55
2018-11-22T00:31:04.240Z,17.75
2018-11-22T00:31:39.576Z,18.57
2018-11-22T00:32:14.790Z,16.23
2018-11-22T00:32:49.801Z,16.90
2018-11-22T00:33:25.245Z,17.02
2018-11-22T00:34:00.173Z,16.57
2018-11-22T00:34:35.022Z,15.75
2018-11-22T00:35:11.893Z,17.15
2018-11-22T00:35:47.380Z,16.55
2018-11-22T00:36:22.930Z,17.00
2018-11-22T00:36:57.752Z,18.20
2018-11-22T00:37:32.900Z,16.90
2018-11-22T00:38:07.317Z,18.10
2018-11-22T00:38:42.486Z,16.45
2018-11-22T00:39:16.955Z,16.67
2018-11-22T00:39:51.410Z,17.70
2018-11-22T00:40:27.447Z,18.50
2018-11-22T00:41:02.676Z,17.40
2018-11-22T00:41:38.302Z,17.98
2018-11-22T00:42:13.118Z,17.80
2018-11-22T00:42:48.270Z,17.32
2018-11-22T00:43:23.060Z,17.57
2018-11-22T00:43:57.995Z,17.85
2018-11-22T00:44:32.814Z,17.77
2018-11-22T00:45:10.254Z,17.57
2018-11-22T00:45:45.622Z,18.00
2018-11-22T00:46:20.566Z,17.35
2018-11-22T00:46:55.694Z,18.50
2018-11-22T00:47:30.474Z,18.55
2018-11-22T00:48:05.293Z,17.75
2018-11-22T00:48:40.136Z,18.67
2018-11-22T00:49:15.558Z,17.73
2018-11-22T00:49:50.758Z,17.52
2018-11-22T00:50:25.900Z,17.80
2018-11-22T00:51:01.338Z,18.48
2018-11-22T00:51:36.180Z,17.30
2018-11-22T00:52:11.278Z,18.67
2018-11-22T00:52:46.182Z,17.48
2018-11-22T00:53:21.101Z,17.00
2018-11-22T00:53:56.325Z,16.55
2018-11-22T00:54:31.186Z,18.25
2018-11-22T00:55:07.688Z,18.05
2018-11-22T00:55:42.840Z,17.00
2018-11-22T00:56:18.042Z,17.05
2018-11-22T00:56:52.859Z,18.42
2018-11-22T00:57:28.318Z,18.07
2018-11-22T00:58:02.798Z,18.60
2018-11-22T00:58:37.978Z,18.90
2018-11-22T00:59:13.254Z,16.65
2018-11-22T00:59:48.701Z,19.05
2018-11-22T01:00:25.004Z,17.57
2018-11-22T01:01:00.159Z,19.32
2018-11-22T01:01:34.596Z,17.87
2018-11-22T01:02:09.914Z,17.60
2018-11-22T01:02:45.282Z,17.55
2018-11-22T01:03:20.858Z,18.75
2018-11-22T01:03:56.028Z,17.80
2018-11-22T01:04:31.432Z,18.70
2018-11-22T01:05:05.939Z,16.75
2018-11-22T01:05:41.144Z,17.85
2018-11-22T01:06:16.068Z,17.25
2018-11-22T01:06:51.527Z,18.32
2018-11-22T01:07:26.946Z,18.45
2018-11-22T01:08:02.095Z,18.60
2018-11-22T01:08:37.226Z,18.20
2018-11-22T01:09:13.401Z,18.85
2018-11-22T01:09:48.566Z,18.30
2018-11-22T01:10:25.110Z,19.40
2018-11-22T01:11:00.555Z,19.17
2018-11-22T01:11:35.984Z,18.27
2018-11-22T01:12:14.180Z,19.92
2018-11-22T01:12:50.510Z,18.32
2018-11-22T01:13:25.426Z,19.30
2018-11-22T01:14:00.908Z,20.23
2018-11-22T01:14:36.030Z,19.10
2018-11-22T01:15:11.210Z,19.27
2018-11-22T01:15:46.354Z,20.15
2018-11-22T01:16:21.502Z,19.15
2018-11-22T01:16:56.296Z,20.70
2018-11-22T01:17:31.110Z,18.37
2018-11-22T01:18:06.105Z,19.92
2018-11-22T01:18:41.546Z,19.30
2018-11-22T01:19:16.768Z,18.85
2018-11-22T01:19:51.378Z,19.10
2018-11-22T01:20:27.210Z,18.90
2018-11-22T01:21:02.679Z,19.30
2018-11-22T01:21:37.148Z,19.90
2018-11-22T01:22:11.969Z,19.52
2018-11-22T01:22:47.656Z,19.80
2018-11-22T01:23:22.522Z,18.82
2018-11-22T01:23:57.747Z,19.77
2018-11-22T01:24:32.974Z,19.60
2018-11-22T01:25:09.616Z,20.25
2018-11-22T01:25:44.430Z,18.92
2018-11-22T01:26:19.297Z,21.50
2018-11-22T01:26:54.086Z,19.50
2018-11-22T01:27:29.201Z,21.55
2018-11-22T01:28:04.023Z,19.15
2018-11-22T01:28:39.170Z,19.57
2018-11-22T01:29:13.657Z,20.10
2018-11-22T01:29:48.551Z,19.82
2018-11-22T01:30:24.264Z,20.60
2018-11-22T01:30:59.668Z,20.48
2018-11-22T01:31:34.773Z,20.62
2018-11-22T01:32:10.245Z,19.60
2018-11-22T01:32:46.701Z,19.87
2018-11-22T01:33:21.574Z,20.10
2018-11-22T01:33:57.020Z,19.85
2018-11-22T01:34:32.458Z,19.50
2018-11-22T01:35:08.052Z,19.23
2018-11-22T01:35:43.294Z,21.15
2018-11-22T01:36:18.547Z,19.73
2018-11-22T01:36:53.631Z,20.45
2018-11-22T01:37:28.764Z,20.00
2018-11-22T01:38:04.307Z,20.45
2018-11-22T01:38:39.530Z,20.10
2018-11-22T01:39:14.932Z,19.50
2018-11-22T01:39:50.384Z,19.12
2018-11-22T01:40:26.098Z,20.52
2018-11-22T01:41:01.657Z,18.62
2018-11-22T01:41:36.192Z,20.17
2018-11-22T01:42:11.311Z,19.57
2018-11-22T01:42:46.516Z,19.55
2018-11-22T01:43:21.438Z,19.12
2018-11-22T01:43:56.728Z,19.67
2018-11-22T01:44:33.167Z,19.65
2018-11-22T01:45:10.007Z,19.17
2018-11-22T01:45:45.204Z,20.10
2018-11-22T01:46:19.749Z,19.00
2018-11-22T01:46:55.159Z,18.82
2018-11-22T01:47:30.369Z,19.10
2018-11-22T01:48:05.596Z,19.30
2018-11-22T01:48:40.737Z,19.55
2018-11-22T01:49:15.249Z,20.05
2018-11-22T01:49:50.558Z,19.75
2018-11-22T01:50:25.702Z,20.55
2018-11-22T01:51:00.571Z,20.30
2018-11-22T01:51:35.916Z,19.70
2018-11-22T01:52:11.154Z,20.00
2018-11-22T01:52:46.690Z,19.75
2018-11-22T01:53:21.570Z,21.12
2018-11-22T01:53:56.732Z,19.70
2018-11-22T01:54:31.920Z,19.75
2018-11-22T01:55:08.914Z,19.57
2018-11-22T01:55:44.075Z,19.73
2018-11-22T01:56:19.168Z,20.62
2018-11-22T01:56:54.400Z,19.30
2018-11-22T01:57:29.626Z,20.05
2018-11-22T01:58:04.068Z,20.37
2018-11-22T01:58:38.872Z,19.70
2018-11-22T01:59:14.264Z,19.80
2018-11-22T01:59:49.751Z,18.73
2018-11-22T02:00:25.618Z,19.85
2018-11-22T02:01:00.790Z,21.62
2018-11-22T02:01:35.706Z,19.85
2018-11-22T02:02:10.542Z,20.85
2018-11-22T02:02:45.500Z,18.87
2018-11-22T02:03:20.669Z,20.90
2018-11-22T02:03:56.108Z,20.25
2018-11-22T02:04:31.322Z,19.60
2018-11-22T02:05:08.205Z,20.12
2018-11-22T02:05:43.094Z,20.88
2018-11-22T02:06:17.944Z,20.08
2018-11-22T02:06:52.738Z,21.02
2018-11-22T02:07:27.194Z,20.88
2018-11-22T02:08:01.982Z,19.27
2018-11-22T02:08:37.478Z,19.67
2018-11-22T02:09:12.336Z,20.75
2018-11-22T02:09:47.821Z,20.27
2018-11-22T02:10:23.374Z,19.85
2018-11-22T02:10:58.851Z,19.07
2018-11-22T02:11:33.962Z,20.88
2018-11-22T02:12:09.360Z,19.95
2018-11-22T02:12:44.538Z,19.90
2018-11-22T02:13:20.017Z,19.70
2018-11-22T02:13:55.143Z,19.48
2018-11-22T02:14:30.366Z,19.73
2018-11-22T02:15:06.848Z,18.65
2018-11-22T02:15:41.622Z,20.90
2018-11-22T02:16:16.850Z,20.35
2018-11-22T02:16:52.262Z,19.95
2018-11-22T02:17:27.108Z,20.20
2018-11-22T02:18:01.921Z,20.10
2018-11-22T02:18:37.459Z,19.17
2018-11-22T02:19:12.276Z,20.40
2018-11-22T02:19:46.730Z,20.25
2018-11-22T02:20:22.293Z,19.75
2018-11-22T02:20:57.132Z,18.42
2018-11-22T02:21:32.460Z,20.95
2018-11-22T02:22:08.020Z,20.20
2018-11-22T02:22:42.963Z,19.70
2018-11-22T02:23:18.035Z,19.48
2018-11-22T02:23:53.260Z,19.75
2018-11-22T02:24:28.544Z,20.00
2018-11-22T02:25:04.017Z,19.85
2018-11-22T02:25:39.215Z,19.50
2018-11-22T02:26:13.679Z,20.75
2018-11-22T02:26:48.568Z,21.73
2018-11-22T02:27:24.015Z,21.15
2018-11-22T02:27:58.851Z,20.45
2018-11-22T02:28:34.353Z,19.65
2018-11-22T02:29:09.810Z,19.60
2018-11-22T02:29:45.318Z,18.48
2018-11-22T02:30:21.773Z,20.37
2018-11-22T02:30:56.903Z,18.67
2018-11-22T02:31:32.022Z,18.90
2018-11-22T02:32:07.451Z,19.27
2018-11-22T02:32:42.878Z,19.65
2018-11-22T02:33:18.319Z,19.62
2018-11-22T02:33:53.104Z,20.02
2018-11-22T02:34:28.567Z,19.70
2018-11-22T02:35:03.783Z,20.15
2018-11-22T02:35:38.293Z,20.75
2018-11-22T02:36:13.719Z,19.27
2018-11-22T02:36:48.855Z,20.40
2018-11-22T02:37:24.179Z,19.82
2018-11-22T02:37:59.276Z,18.85
2018-11-22T02:38:34.490Z,19.20
2018-11-22T02:39:10.232Z,18.92
2018-11-22T02:39:45.450Z,19.90
2018-11-22T02:40:21.912Z,20.60
2018-11-22T02:40:56.345Z,19.32
2018-11-22T02:41:31.572Z,19.25
2018-11-22T02:42:06.614Z,20.45
2018-11-22T02:42:43.101Z,20.90
2018-11-22T02:43:18.213Z,22.10
2018-11-22T02:43:53.640Z,19.15
2018-11-22T02:44:28.118Z,19.45
2018-11-22T02:45:03.179Z,19.48
2018-11-22T02:45:37.638Z,18.67
2018-11-22T02:46:12.568Z,20.82
2018-11-22T02:46:47.737Z,20.08
2018-11-22T02:47:23.149Z,20.00
2018-11-22T02:47:58.567Z,20.97
2018-11-22T02:48:33.999Z,19.70
2018-11-22T02:49:08.493Z,22.20
2018-11-22T02:49:43.925Z,20.20
2018-11-22T02:50:20.166Z,19.55
2018-11-22T02:50:55.401Z,20.00
2018-11-22T02:51:30.537Z,20.32
2018-11-22T02:52:05.948Z,19.70
2018-11-22T02:52:41.348Z,21.42
2018-11-22T02:53:16.831Z,19.45
2018-11-22T02:53:51.603Z,20.48
2018-11-22T02:54:27.194Z,20.32
2018-11-22T02:55:01.982Z,20.97
2018-11-22T02:55:37.426Z,19.60
2018-11-22T02:56:12.884Z,21.00
2018-11-22T02:56:47.673Z,20.12
2018-11-22T02:57:21.803Z,19.42
2018-11-22T02:57:56.881Z,21.30
2018-11-22T02:58:31.381Z,20.68
2018-11-22T02:59:06.485Z,21.00
2018-11-22T02:59:40.990Z,19.27
2018-11-22T03:00:44.923Z,20.77
2018-11-22T03:01:20.442Z,18.55
2018-11-22T03:01:55.778Z,18.70
2018-11-22T03:02:30.931Z,19.10
2018-11-22T03:03:06.039Z,20.35
2018-11-22T03:03:41.119Z,19.45
2018-11-22T03:04:16.581Z,21.52
2018-11-22T03:04:51.429Z,20.32
2018-11-22T03:05:26.669Z,20.85
2018-11-22T03:06:02.065Z,20.15
2018-11-22T03:06:37.535Z,19.62
2018-11-22T03:07:12.400Z,19.98
2018-11-22T03:07:47.780Z,21.73
2018-11-22T03:08:22.603Z,21.45
2018-11-22T03:08:57.359Z,20.92
2018-11-22T03:09:32.281Z,20.80
2018-11-22T03:10:07.803Z,20.55
2018-11-22T03:10:42.530Z,20.30
2018-11-22T03:11:17.998Z,20.15
2018-11-22T03:11:52.814Z,21.37
2018-11-22T03:12:27.913Z,20.32
2018-11-22T03:13:03.044Z,20.65
2018-11-22T03:13:38.170Z,20.60
2018-11-22T03:14:13.597Z,21.35
2018-11-22T03:14:48.815Z,20.72
2018-11-22T03:15:23.653Z,20.25
2018-11-22T03:15:59.088Z,19.02
2018-11-22T03:16:34.170Z,20.80
2018-11-22T03:17:09.281Z,21.17
2018-11-22T03:17:44.123Z,20.90
2018-11-22T03:18:18.942Z,19.95
2018-11-22T03:18:54.100Z,20.95
2018-11-22T03:19:29.285Z,20.85
2018-11-22T03:20:04.620Z,21.90
2018-11-22T03:20:39.843Z,20.97
2018-11-22T03:21:14.697Z,21.93
2018-11-22T03:21:49.802Z,20.48
2018-11-22T03:22:25.023Z,21.27
2018-11-22T03:23:00.235Z,20.35
2018-11-22T03:23:34.729Z,21.10
2018-11-22T03:24:09.192Z,19.98
2018-11-22T03:24:44.287Z,20.80
2018-11-22T03:25:20.119Z,20.60
2018-11-22T03:25:54.917Z,20.62
2018-11-22T03:26:29.741Z,20.40
2018-11-22T03:27:03.826Z,20.65
2018-11-22T03:27:38.542Z,19.35
2018-11-22T03:28:13.774Z,21.68
2018-11-22T03:28:48.609Z,21.12
2018-11-22T03:29:23.727Z,21.65
2018-11-22T03:29:58.853Z,19.60
2018-11-22T03:30:33.674Z,21.65
2018-11-22T03:31:08.480Z,20.68
2018-11-22T03:31:43.592Z,19.10
2018-11-22T03:32:18.413Z,20.75
2018-11-22T03:32:52.909Z,20.90
2018-11-22T03:33:28.364Z,20.85
2018-11-22T03:34:03.183Z,20.62
2018-11-22T03:34:38.616Z,21.42
2018-11-22T03:35:14.955Z,20.12
2018-11-22T03:35:49.395Z,20.05
2018-11-22T03:36:24.592Z,21.62
2018-11-22T03:36:59.741Z,19.85
2018-11-22T03:37:34.539Z,21.12
2018-11-22T03:38:09.763Z,20.72
2018-11-22T03:38:44.913Z,20.20
2018-11-22T03:39:20.105Z,20.92
2018-11-22T03:39:54.931Z,20.17
2018-11-22T03:40:29.433Z,20.20
2018-11-22T03:41:04.669Z,20.52
2018-11-22T03:41:39.815Z,21.90
2018-11-22T03:42:14.338Z,20.62
2018-11-22T03:42:49.423Z,21.15
2018-11-22T03:43:25.097Z,20.20
2018-11-22T03:43:59.997Z,21.52
2018-11-22T03:44:35.197Z,22.17
2018-11-22T03:45:11.573Z,20.45
2018-11-22T03:45:46.406Z,21.73
2018-11-22T03:46:21.585Z,20.77
2018-11-22T03:46:56.743Z,20.65
2018-11-22T03:47:32.172Z,21.07
2018-11-22T03:48:06.954Z,20.70
2018-11-22T03:48:42.108Z,21.40
2018-11-22T03:49:17.305Z,22.48
2018-11-22T03:49:52.151Z,20.68
2018-11-22T03:50:28.177Z,20.37
2018-11-22T03:51:03.289Z,21.75
2018-11-22T03:51:38.107Z,22.30
2018-11-22T03:52:13.337Z,20.90
2018-11-22T03:52:49.617Z,19.77
2018-11-22T03:53:25.033Z,21.20
2018-11-22T03:53:59.854Z,20.35
2018-11-22T03:54:35.361Z,20.90
2018-11-22T03:55:12.329Z,22.02
2018-11-22T03:55:47.147Z,21.48
2018-11-22T03:56:23.251Z,20.00
2018-11-22T03:56:58.109Z,21.35
2018-11-22T03:57:33.612Z,20.82
2018-11-22T03:58:08.353Z,21.05
2018-11-22T03:58:43.465Z,19.80
2018-11-22T03:59:18.939Z,20.70
2018-11-22T03:59:54.058Z,20.88
2018-11-22T04:00:30.027Z,18.80
2018-11-22T04:01:05.404Z,21.15
2018-11-22T04:01:39.841Z,20.40
2018-11-22T04:02:14.974Z,20.20
2018-11-22T04:02:50.478Z,20.20
2018-11-22T04:03:24.960Z,19.37
2018-11-22T04:04:00.124Z,21.12
2018-11-22T04:04:35.542Z,20.00
2018-11-22T04:05:12.815Z,20.10
2018-11-22T04:05:48.033Z,20.68
2018-11-22T04:06:23.256Z,19.77
2018-11-22T04:06:58.417Z,19.32
2018-11-22T04:07:33.303Z,18.87
2018-11-22T04:08:08.838Z,18.85
2018-11-22T04:08:43.277Z,19.45
2018-11-22T04:09:18.157Z,20.10
2018-11-22T04:09:53.314Z,19.17
2018-11-22T04:10:29.439Z,19.05
2018-11-22T04:11:04.250Z,19.92
2018-11-22T04:11:39.166Z,18.12
2018-11-22T04:12:14.391Z,18.80
2018-11-22T04:12:48.912Z,19.57
2018-11-22T04:13:24.214Z,19.77
2018-11-22T04:14:00.179Z,20.05
2018-11-22T04:14:34.992Z,20.17
2018-11-22T04:15:11.015Z,20.12
2018-11-22T04:15:45.772Z,19.45
2018-11-22T04:16:20.980Z,19.55
2018-11-22T04:16:56.208Z,18.10
2018-11-22T04:17:31.373Z,19.62
2018-11-22T04:18:06.775Z,19.17
2018-11-22T04:18:42.258Z,19.55
2018-11-22T04:19:17.103Z,19.05
2018-11-22T04:19:52.199Z,19.32
2018-11-22T04:20:29.191Z,19.60
2018-11-22T04:21:04.346Z,18.12
2018-11-22T04:21:44.049Z,20.97
2018-11-22T04:22:19.785Z,17.82
2018-11-22T04:22:54.188Z,19.80
2018-11-22T04:23:29.417Z,19.50
2018-11-22T04:24:03.701Z,18.57
2018-11-22T04:24:38.784Z,18.73
2018-11-22T04:25:14.040Z,19.92
2018-11-22T04:25:49.605Z,19.02
2018-11-22T04:26:24.452Z,19.02
2018-11-22T04:27:01.152Z,19.15
2018-11-22T04:27:35.940Z,18.42
2018-11-22T04:28:11.125Z,19.17
2018-11-22T04:28:46.660Z,19.40
2018-11-22T04:29:21.805Z,18.77
2018-11-22T04:29:56.956Z,18.50
2018-11-22T04:30:33.235Z,18.40
2018-11-22T04:31:08.710Z,20.62
2018-11-22T04:31:44.135Z,18.07
2018-11-22T04:32:19.600Z,19.75
2018-11-22T04:32:54.661Z,18.35
2018-11-22T04:33:29.862Z,19.07
2018-11-22T04:34:05.383Z,19.57
2018-11-22T04:34:40.812Z,19.50
2018-11-22T04:35:16.922Z,19.92
2018-11-22T04:35:52.137Z,21.10
2018-11-22T04:36:26.981Z,18.32
2018-11-22T04:37:02.092Z,18.70
2018-11-22T04:37:37.555Z,18.48
2018-11-22T04:38:12.841Z,19.70
2018-11-22T04:38:48.074Z,18.10
2018-11-22T04:39:23.398Z,18.98
2018-11-22T04:39:58.542Z,18.62
2018-11-22T04:40:33.649Z,18.30
2018-11-22T04:41:08.542Z,20.20
2018-11-22T04:41:44.087Z,18.30
2018-11-22T04:42:19.002Z,19.35
2018-11-22T04:42:54.436Z,20.12
2018-11-22T04:43:29.355Z,18.65
2018-11-22T04:44:04.980Z,19.62
2018-11-22T04:44:39.798Z,18.67
2018-11-22T04:45:14.641Z,19.77
2018-11-22T04:45:49.054Z,19.80
2018-11-22T04:46:23.550Z,20.08
2018-11-22T04:46:58.981Z,19.87
2018-11-22T04:47:33.848Z,18.15
2018-11-22T04:48:14.868Z,18.60
2018-11-22T04:48:50.084Z,19.48
2018-11-22T04:49:24.900Z,19.70
2018-11-22T04:50:00.013Z,19.12
2018-11-22T04:50:36.276Z,18.65
2018-11-22T04:51:11.091Z,19.35
2018-11-22T04:51:45.904Z,19.35
2018-11-22T04:52:20.366Z,18.77
2018-11-22T04:52:55.524Z,18.82
2018-11-22T04:53:30.634Z,19.15
2018-11-22T04:54:05.688Z,17.80
2018-11-22T04:54:40.833Z,18.77
2018-11-22T04:55:15.675Z,18.90
2018-11-22T04:55:50.849Z,18.37
2018-11-22T04:56:25.768Z,21.27
2018-11-22T04:57:00.995Z,19.05
2018-11-22T04:57:36.148Z,19.92
2018-11-22T04:58:11.564Z,18.70
2018-11-22T04:58:46.738Z,19.02
2018-11-22T04:59:21.594Z,20.17
2018-11-22T04:59:57.098Z,19.50
2018-11-22T05:00:32.580Z,20.15
2018-11-22T05:01:07.706Z,18.85
2018-11-22T05:01:42.192Z,18.95
2018-11-22T05:02:16.707Z,19.75
2018-11-22T05:02:51.901Z,19.82
2018-11-22T05:03:27.250Z,19.60
2018-11-22T05:04:02.168Z,21.23
2018-11-22T05:04:37.728Z,18.55
2018-11-22T05:05:14.054Z,18.82
2018-11-22T05:05:49.509Z,19.15
2018-11-22T05:06:24.945Z,19.42
2018-11-22T05:07:00.342Z,18.85
2018-11-22T05:07:35.748Z,19.80
2018-11-22T05:08:10.908Z,20.37
2018-11-22T05:08:46.045Z,19.12
2018-11-22T05:09:20.942Z,18.75
2018-11-22T05:09:55.790Z,19.27
2018-11-22T05:10:30.674Z,19.75
2018-11-22T05:11:05.720Z,20.48
2018-11-22T05:11:40.920Z,20.00
2018-11-22T05:12:15.765Z,19.92
2018-11-22T05:12:51.169Z,20.02
2018-11-22T05:13:26.496Z,18.57
2018-11-22T05:14:01.340Z,18.50
2018-11-22T05:14:36.641Z,19.23
2018-11-22T05:15:13.273Z,19.25
2018-11-22T05:15:48.490Z,18.98
2018-11-22T05:16:23.991Z,18.60
2018-11-22T05:16:59.853Z,18.92
2018-11-22T05:17:35.033Z,20.62
2018-11-22T05:18:12.623Z,18.00
2018-11-22T05:18:46.190Z,19.40
2018-11-22T05:19:22.746Z,17.67
2018-11-22T05:19:58.316Z,19.70
2018-11-22T05:20:33.821Z,18.50
2018-11-22T05:21:09.706Z,18.48
2018-11-22T05:21:45.090Z,19.35
2018-11-22T05:22:20.102Z,19.42
2018-11-22T05:22:55.543Z,18.95
2018-11-22T05:23:31.110Z,18.30
2018-11-22T05:24:06.688Z,19.10
2018-11-22T05:24:41.068Z,20.30
2018-11-22T05:25:16.334Z,20.08
2018-11-22T05:25:50.878Z,19.15
2018-11-22T05:26:25.891Z,19.25
2018-11-22T05:27:01.503Z,19.50
2018-11-22T05:27:36.526Z,19.25
2018-11-22T05:28:11.880Z,18.30
2018-11-22T05:28:46.730Z,19.85
2018-11-22T05:29:21.612Z,19.02
2018-11-22T05:29:56.920Z,18.05
2018-11-22T05:30:31.730Z,18.98
2018-11-22T05:31:06.881Z,19.00
2018-11-22T05:31:42.322Z,18.65
2018-11-22T05:32:18.336Z,19.67
2018-11-22T05:32:52.776Z,18.80
2018-11-22T05:33:27.855Z,19.12
2018-11-22T05:34:02.367Z,18.12
2018-11-22T05:34:37.954Z,18.40
2018-11-22T05:35:14.519Z,19.70
2018-11-22T05:35:49.272Z,18.92
2018-11-22T05:36:24.096Z,18.57
2018-11-22T05:36:59.324Z,19.55
2018-11-22T05:37:35.005Z,17.10
2018-11-22T05:38:09.926Z,19.05
2018-11-22T05:38:45.322Z,19.73
2018-11-22T05:39:20.820Z,18.60
2018-11-22T05:39:56.301Z,19.23
2018-11-22T05:40:32.418Z,17.87
2018-11-22T05:41:07.693Z,18.87
2018-11-22T05:41:43.901Z,18.75
2018-11-22T05:42:18.628Z,20.30
2018-11-22T05:42:54.364Z,20.00
2018-11-22T05:43:29.196Z,20.52
2018-11-22T05:44:06.405Z,20.77
2018-11-22T05:44:41.204Z,20.55
2018-11-22T05:45:17.604Z,19.82
2018-11-22T05:45:52.936Z,19.40
2018-11-22T05:46:28.468Z,17.85
2018-11-22T05:47:03.997Z,19.77
2018-11-22T05:47:38.819Z,18.87
2018-11-22T05:48:13.257Z,20.35
2018-11-22T05:48:48.688Z,19.07
2018-11-22T05:49:23.872Z,21.00
2018-11-22T05:49:59.324Z,19.60
2018-11-22T05:50:34.488Z,19.98
2018-11-22T05:51:09.316Z,20.10
2018-11-22T05:51:44.592Z,20.10
2018-11-22T05:52:19.436Z,19.48
2018-11-22T05:52:56.120Z,20.48
2018-11-22T05:53:31.379Z,19.52
2018-11-22T05:54:06.036Z,19.98
2018-11-22T05:54:40.929Z,19.05
2018-11-22T05:55:16.562Z,20.35
2018-11-22T05:55:51.522Z,19.70
2018-11-22T05:56:26.710Z,19.30
2018-11-22T05:57:01.813Z,19.35
2018-11-22T05:57:37.564Z,19.90
2018-11-22T05:58:13.080Z,19.20
2018-11-22T05:58:47.932Z,19.20
2018-11-22T05:59:23.060Z,19.45
2018-11-22T05:59:57.531Z,19.55
2018-11-22T06:00:33.175Z,19.62
2018-11-22T06:01:08.291Z,22.00
2018-11-22T06:01:42.937Z,20.68
2018-11-22T06:02:18.356Z,18.85
2018-11-22T06:02:53.470Z,19.80
2018-11-22T06:03:28.276Z,20.00
2018-11-22T06:04:03.090Z,19.85
2018-11-22T06:04:38.232Z,18.40
2018-11-22T06:05:13.634Z,20.62
2018-11-22T06:05:48.578Z,18.50
2018-11-22T06:06:23.916Z,19.85
2018-11-22T06:06:59.456Z,19.62
2018-11-22T06:07:35.092Z,21.25
2018-11-22T06:08:09.942Z,20.48
2018-11-22T06:08:44.999Z,18.52
2018-11-22T06:09:20.191Z,19.75
2018-11-22T06:09:55.196Z,20.48
2018-11-22T06:10:32.140Z,19.70
2018-11-22T06:11:06.973Z,18.85
2018-11-22T06:11:42.232Z,19.65
2018-11-22T06:12:17.483Z,20.30
2018-11-22T06:12:53.140Z,20.17
2018-11-22T06:13:27.726Z,19.00
2018-11-22T06:14:02.904Z,18.48
2018-11-22T06:14:38.168Z,19.15
2018-11-22T06:15:13.721Z,18.30
2018-11-22T06:15:49.242Z,21.02
2018-11-22T06:16:24.108Z,19.52
2018-11-22T06:16:59.508Z,18.85
2018-11-22T06:17:34.629Z,19.70
2018-11-22T06:18:09.544Z,19.90
2018-11-22T06:18:45.089Z,19.98
2018-11-22T06:19:23.298Z,18.65
2018-11-22T06:19:58.042Z,20.60
2018-11-22T06:20:34.561Z,18.95
2018-11-22T06:21:09.878Z,19.80
2018-11-22T06:21:44.739Z,18.60
2018-11-22T06:22:20.195Z,16.97
2018-11-22T06:22:56.282Z,20.25
2018-11-22T06:23:31.188Z,20.48
2018-11-22T06:24:06.415Z,20.50
2018-11-22T06:24:41.650Z,19.95
2018-11-22T06:25:17.804Z,19.37
2018-11-22T06:25:53.328Z,18.30
2018-11-22T06:26:28.142Z,18.73
2018-11-22T06:27:03.776Z,19.75
2018-11-22T06:27:39.640Z,19.48
2018-11-22T06:28:14.785Z,19.40
2018-11-22T06:28:50.200Z,20.20
2018-11-22T06:29:25.404Z,21.27
2018-11-22T06:30:00.576Z,20.10
2018-11-22T06:30:35.772Z,20.95
2018-11-22T06:31:10.944Z,20.27
2018-11-22T06:31:45.738Z,20.55
2018-11-22T06:32:21.037Z,19.67
2018-11-22T06:32:57.239Z,19.98
2018-11-22T06:33:32.768Z,18.75
2018-11-22T06:34:07.664Z,20.43
2018-11-22T06:34:42.838Z,18.40
2018-11-22T06:35:17.701Z,17.95
2018-11-22T06:35:53.112Z,19.20
2018-11-22T06:36:28.208Z,18.98
2018-11-22T06:37:03.436Z,18.80
2018-11-22T06:37:38.964Z,19.98
2018-11-22T06:38:14.198Z,19.07
2018-11-22T06:38:49.646Z,20.40
2018-11-22T06:39:25.076Z,20.72
2018-11-22T06:39:59.593Z,19.23
2018-11-22T06:40:34.126Z,19.17
2018-11-22T06:41:08.996Z,19.10
2018-11-22T06:41:44.212Z,19.52
2018-11-22T06:42:19.391Z,20.35
2018-11-22T06:42:55.280Z,20.35
2018-11-22T06:43:29.798Z,19.82
2018-11-22T06:44:05.030Z,18.75
2018-11-22T06:44:39.534Z,19.40
2018-11-22T06:45:19.442Z,19.40
2018-11-22T06:45:54.324Z,18.57
2018-11-22T06:46:28.836Z,18.77
2018-11-22T06:47:04.124Z,19.80
2018-11-22T06:47:39.442Z,19.00
2018-11-22T06:48:14.292Z,18.80
2018-11-22T06:48:49.080Z,19.17
2018-11-22T06:49:24.304Z,18.73
2018-11-22T06:49:59.120Z,18.62
2018-11-22T06:50:34.274Z,19.32
2018-11-22T06:51:09.676Z,17.98
2018-11-22T06:51:44.512Z,19.30
2018-11-22T06:52:19.302Z,19.55
2018-11-22T06:52:54.604Z,18.73
2018-11-22T06:53:29.446Z,21.20
2018-11-22T06:54:04.622Z,20.52
2018-11-22T06:54:38.798Z,18.30
2018-11-22T06:55:21.454Z,18.55
2018-11-22T06:55:56.593Z,18.95
2018-11-22T06:56:32.125Z,19.27
2018-11-22T06:57:07.356Z,18.65
2018-11-22T06:57:42.760Z,19.10
2018-11-22T06:58:18.246Z,18.82
2018-11-22T06:58:53.982Z,19.02
2018-11-22T06:59:29.076Z,18.50
2018-11-22T07:00:04.236Z,18.42
2018-11-22T07:00:39.350Z,19.35
2018-11-22T07:01:14.756Z,19.75
2018-11-22T07:01:49.934Z,19.52
2018-11-22T07:02:25.128Z,18.73
2018-11-22T07:03:02.032Z,19.52
2018-11-22T07:03:37.100Z,20.50
2018-11-22T07:04:11.906Z,19.82
2018-11-22T07:04:47.340Z,19.40
2018-11-22T07:05:23.324Z,19.73
2018-11-22T07:05:58.418Z,19.55
2018-11-22T07:06:33.272Z,19.40
2018-11-22T07:07:08.422Z,19.73
2018-11-22T07:07:43.670Z,18.65
2018-11-22T07:08:19.089Z,19.27
2018-11-22T07:08:54.228Z,19.12
2018-11-22T07:09:29.091Z,19.05
2018-11-22T07:10:04.580Z,18.65
2018-11-22T07:10:40.016Z,17.75
2018-11-22T07:11:15.120Z,18.85
2018-11-22T07:11:50.354Z,18.95
2018-11-22T07:12:25.253Z,18.48
2018-11-22T07:13:01.212Z,18.75
2018-11-22T07:13:36.068Z,18.42
2018-11-22T07:14:11.502Z,18.20
2018-11-22T07:14:46.608Z,19.00
2018-11-22T07:15:21.662Z,19.27
2018-11-22T07:15:56.856Z,19.27
2018-11-22T07:16:31.657Z,19.05
2018-11-22T07:17:07.196Z,18.30
2018-11-22T07:17:42.640Z,18.40
2018-11-22T07:18:17.844Z,18.80
2018-11-22T07:18:52.666Z,19.90
2018-11-22T07:19:27.945Z,18.70
2018-11-22T07:20:03.014Z,17.52
2018-11-22T07:20:38.562Z,19.10
2018-11-22T07:21:12.684Z,19.07
2018-11-22T07:21:47.870Z,18.02
2018-11-22T07:22:22.786Z,18.57
2018-11-22T07:22:59.981Z,18.77
2018-11-22T07:23:34.867Z,17.95
2018-11-22T07:24:09.734Z,18.00
2018-11-22T07:24:45.144Z,17.45
2018-11-22T07:25:21.269Z,18.70
2018-11-22T07:25:56.503Z,18.65
2018-11-22T07:26:31.724Z,19.82
2018-11-22T07:27:06.898Z,17.23
2018-11-22T07:27:41.836Z,18.62
2018-11-22T07:28:17.222Z,19.65
2018-11-22T07:28:52.057Z,19.30
2018-11-22T07:29:27.132Z,19.45
2018-11-22T07:30:02.383Z,18.82
2018-11-22T07:30:42.415Z,18.48
2018-11-22T07:31:13.623Z,18.55
2018-11-22T07:31:48.783Z,17.98
2018-11-22T07:32:24.033Z,17.57
2018-11-22T07:32:59.432Z,18.73
2018-11-22T07:33:38.126Z,16.30
2018-11-22T07:34:09.622Z,17.92
2018-11-22T07:34:44.888Z,17.00